createdAt,value
2022-11-28T00:41:53.340Z,4.00
2022-11-28T00:52:20.644Z,4.00
2022-11-28T01:02:56.541Z,4.00
2022-11-28T01:13:26.840Z,4.00
2022-11-28T01:24:18.125Z,4.00
2022-11-28T02:12:29.232Z,4.00
2022-11-28T03:10:45.958Z,3.90
2022-11-28T03:21:12.960Z,3.90
2022-11-28T03:31:39.827Z,4.00
2022-11-28T03:42:08.595Z,4.00
2022-11-28T03:52:35.202Z,3.90
2022-11-28T04:03:04.759Z,3.90
2022-11-28T04:13:32.842Z,3.80
2022-11-28T04:23:56.482Z,3.80
2022-11-28T04:34:21.415Z,3.70
2022-11-28T04:44:50.210Z,3.70
2022-11-28T04:55:19.892Z,3.70
2022-11-28T05:05:46.565Z,3.80
2022-11-28T05:16:10.682Z,3.90
2022-11-28T05:26:32.885Z,4.00
2022-11-28T05:36:55.793Z,4.00
2022-11-28T05:47:17.162Z,4.10
2022-11-28T05:57:39.968Z,4.10
2022-11-28T06:08:01.329Z,4.00
2022-11-28T06:18:24.213Z,4.00
2022-11-28T06:28:45.869Z,3.80
2022-11-28T06:39:08.900Z,3.60
2022-11-28T06:49:30.569Z,3.60
2022-11-28T06:59:53.770Z,3.50
2022-11-28T07:10:15.480Z,3.50
2022-11-28T07:20:38.358Z,3.60
2022-11-28T07:31:05.973Z,3.70
2022-11-28T07:41:29.771Z,3.70
2022-11-28T07:51:54.383Z,3.70
2022-11-28T08:02:17.889Z,3.80
2022-11-28T08:12:39.219Z,3.90
2022-11-28T08:23:02.506Z,4.00
2022-11-28T08:33:24.607Z,4.10
2022-11-28T08:43:51.048Z,4.10
2022-11-28T08:54:12.836Z,4.40
2022-11-28T09:04:39.760Z,4.50
2022-11-28T09:15:02.822Z,4.60
2022-11-28T09:25:26.302Z,4.80
2022-11-28T09:35:47.960Z,4.80
2022-11-28T09:46:19.291Z,4.90
2022-11-28T09:56:41.244Z,4.90
2022-11-28T10:07:09.474Z,5.10
2022-11-28T10:17:44.113Z,5.10
2022-11-28T10:28:16.648Z,5.30
2022-11-28T10:38:40.811Z,5.30
2022-11-28T10:49:18.117Z,5.50
2022-11-28T10:59:48.739Z,5.50
2022-11-28T11:10:17.803Z,5.80
2022-11-28T11:20:40.795Z,5.70
2022-11-28T11:31:15.664Z,5.80
2022-11-28T11:41:38.121Z,6.00
2022-11-28T11:52:03.871Z,6.10
2022-11-28T12:02:32.370Z,6.40
2022-11-28T12:12:58.577Z,6.30
2022-11-28T12:23:41.881Z,6.40
2022-11-28T12:34:17.025Z,6.40
2022-11-28T12:44:55.679Z,6.30
2022-11-28T12:55:31.594Z,6.30
2022-11-28T13:06:05.590Z,6.20
2022-11-28T13:16:38.228Z,6.20
2022-11-28T13:27:06.668Z,6.10
2022-11-28T13:49:13.961Z,5.80
2022-11-28T13:59:39.382Z,5.80
2022-11-28T14:10:23.038Z,5.70
2022-11-28T14:20:55.838Z,5.50
2022-11-28T14:31:31.689Z,5.30
2022-11-28T14:43:00.190Z,5.10
2022-11-28T14:53:48.136Z,5.00
2022-11-28T15:04:40.433Z,4.90
2022-11-28T15:15:07.986Z,4.80
2022-11-28T15:25:35.471Z,4.70
2022-11-28T15:36:04.442Z,4.60
2022-11-28T15:46:32.155Z,4.60
2022-11-28T15:56:59.624Z,4.50
2022-11-28T16:07:22.286Z,4.50
2022-11-28T16:17:47.737Z,4.40
2022-11-28T16:28:31.722Z,4.30
2022-11-28T16:39:12.019Z,4.10
2022-11-28T16:49:36.742Z,4.00
2022-11-28T16:59:59.517Z,3.90
2022-11-28T17:10:21.187Z,3.90
2022-11-28T17:20:45.185Z,3.90
2022-11-28T17:31:07.625Z,3.80
2022-11-28T17:41:33.092Z,3.90
2022-11-28T17:51:56.601Z,3.80
2022-11-28T18:02:19.944Z,3.80
2022-11-28T18:12:41.944Z,3.90
2022-11-28T18:23:05.174Z,3.80
2022-11-28T18:33:27.113Z,3.90
2022-11-28T18:43:50.392Z,3.80
2022-11-28T18:54:17.653Z,3.90
2022-11-28T19:04:43.933Z,3.80
2022-11-28T19:15:06.774Z,3.80
2022-11-28T19:25:29.780Z,3.80
2022-11-28T19:35:51.214Z,3.90
2022-11-28T19:46:15.881Z,3.90
2022-11-28T19:56:38.121Z,3.90
2022-11-28T20:07:00.930Z,3.90
2022-11-28T20:17:22.612Z,3.90
2022-11-28T20:27:45.953Z,3.90
2022-11-28T20:38:08.009Z,4.00
2022-11-28T20:48:31.488Z,3.90
2022-11-28T20:58:53.844Z,3.90
2022-11-28T21:09:20.081Z,3.90
2022-11-28T21:19:42.027Z,4.00
2022-11-28T21:30:05.783Z,3.90
2022-11-28T21:40:27.504Z,4.00
2022-11-28T21:50:51.865Z,3.90
2022-11-28T22:01:14.836Z,3.90
2022-11-28T22:11:39.334Z,3.90
2022-11-28T22:22:01.057Z,3.90
2022-11-28T22:32:24.176Z,3.90
2022-11-28T22:42:45.735Z,3.80
2022-11-28T22:53:08.882Z,3.80
2022-11-28T23:03:31.265Z,3.70
2022-11-28T23:13:55.195Z,3.70
2022-11-28T23:24:21.411Z,3.60
2022-11-28T23:34:45.339Z,3.50
2022-11-28T23:45:09.431Z,3.50
2022-11-28T23:55:34.441Z,3.50
